Time;durP1;ratioP1;P1;durP2;ratioP2;P2;SDS_P1;SDS_P2;PMS_P1;PMS_P2;Temp;Humidity;BMP_temperature;BMP_pressure;BME280_temperature;BME280_humidity;BME280_pressure;Samples;Min_cycle;Max_cycle;Signal;HPM_P1;HPM_P2
2024/02/10 00:00:35;;;;;;;0.70;0.70;;;;;;;7.35;100.00;95948.91;5708933;23;20046;-93
2024/02/10 00:03:03;;;;;;;0.70;0.70;;;;;;;7.39;100.00;95947.13;4977864;28;20050;-93
2024/02/10 00:05:29;;;;;;;0.70;0.70;;;;;;;7.40;100.00;95944.47;4993795;28;20035;-94
2024/02/10 00:07:56;;;;;;;0.70;0.70;;;;;;;7.45;100.00;95950.63;4992044;28;20622;-93
2024/02/10 00:10:25;;;;;;;0.70;0.70;;;;;;;7.38;100.00;95951.56;4988639;28;20058;-93
2024/02/10 00:12:54;;;;;;;0.70;0.70;;;;;;;7.33;100.00;95949.78;4996150;28;20031;-93
2024/02/10 00:15:21;;;;;;;0.70;0.70;;;;;;;7.37;100.00;95956.84;4965653;28;20043;-95
2024/02/10 00:23:05;;;;;;;0.60;0.60;;;;;;;7.23;100.00;95969.25;5050069;23;20058;-94
2024/02/10 00:25:36;;;;;;;0.70;0.70;;;;;;;7.27;100.00;95971.91;5023566;28;20027;-93
2024/02/10 00:30:54;;;;;;;0.70;0.70;;;;;;;7.28;100.00;95967.47;4959457;28;20099;-93
2024/02/10 00:33:20;;;;;;;0.70;0.70;;;;;;;7.30;100.00;95973.69;4958676;28;20099;-95
2024/02/10 00:35:46;;;;;;;0.60;0.60;;;;;;;7.26;100.00;95961.31;4978356;28;20043;-95
2024/02/10 00:38:14;;;;;;;0.70;0.70;;;;;;;7.39;100.00;95955.09;4969510;28;20039;-94
2024/02/10 00:40:40;;;;;;;0.75;0.75;;;;;;;7.35;100.00;95970.13;5009580;23;20109;-92
2024/02/10 00:43:07;;;;;;;0.70;0.70;;;;;;;7.35;100.00;95956.00;4987660;28;20038;-93
2024/02/10 00:45:34;;;;;;;0.70;0.70;;;;;;;7.43;100.00;95957.72;5012776;28;20076;-92
2024/02/10 00:48:00;;;;;;;0.70;0.70;;;;;;;7.42;100.00;95953.28;5008276;28;20089;-94
2024/02/10 00:50:25;;;;;;;0.90;0.90;;;;;;;7.42;100.00;95965.69;5006660;28;20284;-93
2024/02/10 00:52:51;;;;;;;0.60;0.60;;;;;;;7.52;100.00;95966.53;5010072;28;20098;-92
2024/02/10 00:55:17;;;;;;;0.80;0.80;;;;;;;7.48;100.00;95965.69;5010315;28;20094;-93
2024/02/10 00:57:43;;;;;;;0.80;0.80;;;;;;;7.52;100.00;95962.13;5011263;28;20034;-95
2024/02/10 01:00:17;;;;;;;0.60;0.60;;;;;;;7.50;100.00;95947.97;5007793;28;20034;-94
2024/02/10 01:02:45;;;;;;;0.70;0.70;;;;;;;7.48;100.00;95946.22;5025252;28;20050;-94
2024/02/10 01:05:12;;;;;;;0.70;0.70;;;;;;;7.51;100.00;95943.53;5006401;28;20046;-95
2024/02/10 01:07:42;;;;;;;0.77;0.77;;;;;;;7.49;100.00;95934.72;4992096;28;20041;-94
2024/02/10 01:10:11;;;;;;;0.70;0.70;;;;;;;7.59;100.00;95928.50;5005054;28;20037;-95
2024/02/10 01:12:38;;;;;;;0.65;0.65;;;;;;;7.66;100.00;95952.31;5006478;28;20111;-94
2024/02/10 01:15:05;;;;;;;0.73;0.73;;;;;;;7.65;100.00;95966.47;5004592;28;20400;-93
2024/02/10 01:17:31;;;;;;;0.80;0.80;;;;;;;7.59;100.00;95961.22;4989212;28;20038;-94
2024/02/10 01:19:57;;;;;;;0.80;0.80;;;;;;;7.45;100.00;95955.06;4987118;28;20057;-95
2024/02/10 01:22:29;;;;;;;0.70;0.70;;;;;;;7.44;100.00;95955.97;5009715;28;20042;-95
2024/02/10 01:24:55;;;;;;;0.70;0.70;;;;;;;7.45;100.00;95949.75;5000133;28;20061;-93
2024/02/10 01:27:22;;;;;;;0.75;0.75;;;;;;;7.42;100.00;95950.63;4992991;28;20081;-95
2024/02/10 01:29:50;;;;;;;0.70;0.70;;;;;;;7.44;100.00;95950.66;4992759;28;20057;-94
2024/02/10 01:32:19;;;;;;;0.60;0.60;;;;;;;7.44;100.00;95954.19;4994444;28;20046;-95
2024/02/10 01:34:49;;;;;;;0.60;0.60;;;;;;;7.49;100.00;95945.34;4994238;28;20035;-94
2024/02/10 01:37:18;;;;;;;0.70;0.70;;;;;;;7.55;100.00;95947.97;5001499;28;20050;-93
2024/02/10 01:39:49;;;;;;;0.60;0.60;;;;;;;7.49;100.00;95935.59;4985227;28;20034;-92
2024/02/10 01:42:18;;;;;;;0.60;0.60;;;;;;;7.54;100.00;95938.25;5011778;28;20042;-93
2024/02/10 01:44:45;;;;;;;0.60;0.60;;;;;;;7.53;100.00;95934.72;4991860;28;20081;-94
2024/02/10 01:47:14;;;;;;;0.70;0.70;;;;;;;7.55;100.00;95932.03;4989421;28;20737;-94
2024/02/10 01:49:43;;;;;;;0.60;0.60;;;;;;;7.61;100.00;95929.34;4978679;28;20069;-93
2024/02/10 01:52:10;;;;;;;0.68;0.68;;;;;;;7.54;100.00;95922.31;4976553;28;20035;-95
2024/02/10 01:54:38;;;;;;;0.70;0.70;;;;;;;7.55;100.00;95924.97;4991962;28;20057;-94
2024/02/10 01:57:08;;;;;;;0.60;0.60;;;;;;;7.60;100.00;95927.59;4995926;28;20476;-94
2024/02/10 01:59:38;;;;;;;0.60;0.60;;;;;;;7.68;100.00;95923.13;4991866;28;20045;-94
2024/02/10 02:02:05;;;;;;;0.60;0.60;;;;;;;7.66;100.00;95928.44;4993644;28;20061;-93
2024/02/10 02:04:36;;;;;;;0.70;0.70;;;;;;;7.55;100.00;95927.59;4992314;28;20065;-93
2024/02/10 02:07:09;;;;;;;0.70;0.70;;;;;;;7.56;100.00;95909.91;4997681;28;20046;-94
2024/02/10 02:09:35;;;;;;;0.60;0.60;;;;;;;7.63;100.00;95912.53;4984382;28;20029;-93
2024/02/10 02:12:07;;;;;;;0.60;0.60;;;;;;;7.66;100.00;95911.63;4996114;28;20026;-94
2024/02/10 02:14:36;;;;;;;0.60;0.60;;;;;;;7.66;100.00;95903.66;4990688;28;20023;-92
2024/02/10 02:17:06;;;;;;;0.70;0.70;;;;;;;7.66;100.00;95901.91;4997203;28;20038;-94
2024/02/10 02:19:33;;;;;;;0.60;0.60;;;;;;;7.61;100.00;95901.03;4990181;28;20093;-94
2024/02/10 02:22:00;;;;;;;0.70;0.70;;;;;;;7.51;100.00;95907.28;4982183;28;20084;-95
2024/02/10 02:24:28;;;;;;;0.60;0.60;;;;;;;7.40;100.00;95894.06;4988389;28;20034;-93
2024/02/10 02:26:55;;;;;;;0.70;0.70;;;;;;;7.22;100.00;95888.84;4975795;28;20400;-94
2024/02/10 02:29:21;;;;;;;0.70;0.70;;;;;;;7.11;100.00;95890.66;4987742;28;20030;-93
2024/02/10 02:31:47;;;;;;;0.60;0.60;;;;;;;7.02;100.00;95893.34;4992224;28;20117;-94
2024/02/10 02:34:13;;;;;;;0.60;0.60;;;;;;;7.00;100.00;95887.16;4994909;28;20133;-94
2024/02/10 02:36:39;;;;;;;0.60;0.60;;;;;;;7.01;100.00;95888.94;4994460;28;20035;-95
2024/02/10 02:39:05;;;;;;;0.70;0.70;;;;;;;7.05;100.00;95888.03;4974143;28;20035;-94
2024/02/10 02:41:32;;;;;;;0.70;0.70;;;;;;;7.15;100.00;95879.16;4993718;28;20038;-96
2024/02/10 02:43:57;;;;;;;0.70;0.70;;;;;;;7.16;100.00;95878.25;4959893;28;20066;-95
2024/02/10 02:46:27;;;;;;;0.60;0.60;;;;;;;7.14;100.00;95872.09;4977574;28;20132;-95
2024/02/10 02:48:53;;;;;;;0.65;0.65;;;;;;;7.17;100.00;95869.41;4992748;28;20133;-93
2024/02/10 02:51:20;;;;;;;0.70;0.70;;;;;;;7.19;100.00;95875.63;4994704;28;20475;-92
2024/02/10 02:53:48;;;;;;;0.60;0.60;;;;;;;7.09;100.00;95869.47;5001752;28;20030;-94
2024/02/10 02:56:18;;;;;;;0.70;0.70;;;;;;;7.04;100.00;95858.00;4999904;28;20026;-94
2024/02/10 02:58:45;;;;;;;0.63;0.63;;;;;;;6.96;100.00;95857.13;4989171;28;20039;-93
2024/02/10 03:01:10;;;;;;;0.70;0.70;;;;;;;6.88;100.00;95851.84;4993132;28;20026;-95
2024/02/10 03:03:39;;;;;;;0.70;0.70;;;;;;;6.78;100.00;95843.94;5006388;28;20042;-96
2024/02/10 03:06:06;;;;;;;0.68;0.68;;;;;;;6.82;100.00;95840.38;4982989;28;20038;-94
2024/02/10 03:08:31;;;;;;;0.70;0.70;;;;;;;6.84;100.00;95841.25;4992294;28;20042;-94
2024/02/10 03:10:59;;;;;;;0.75;0.75;;;;;;;6.71;100.00;95832.47;4993610;28;20045;-95
2024/02/10 03:13:26;;;;;;;0.70;0.70;;;;;;;6.74;100.00;95829.78;4990842;28;20034;-94
2024/02/10 03:15:52;;;;;;;0.70;0.70;;;;;;;6.78;100.00;95841.28;4992839;28;20865;-93
2024/02/10 03:18:18;;;;;;;0.70;0.70;;;;;;;6.71;100.00;95837.78;4996683;28;20044;-93
2024/02/10 03:20:44;;;;;;;0.70;0.70;;;;;;;6.60;100.00;95832.47;4991149;28;20045;-94
2024/02/10 03:23:13;;;;;;;0.70;0.70;;;;;;;6.46;100.00;95836.91;4984718;28;20034;-94
2024/02/10 03:25:43;;;;;;;0.70;0.70;;;;;;;6.41;100.00;95839.56;5002178;28;20042;-93
2024/02/10 03:28:09;;;;;;;0.73;0.73;;;;;;;6.59;100.00;95833.38;4993149;28;20038;-92
2024/02/10 03:35:53;;;;;;;0.73;0.73;;;;;;;6.52;100.00;95836.06;5903170;23;20046;-94
2024/02/10 03:38:22;;;;;;;0.68;0.68;;;;;;;6.29;100.00;95829.00;5005036;28;20046;-94
2024/02/10 03:40:48;;;;;;;0.70;0.70;;;;;;;6.10;100.00;95827.25;5003437;28;20038;-94
2024/02/10 03:43:14;;;;;;;0.70;0.70;;;;;;;6.02;100.00;95818.44;4980763;28;20041;-94
2024/02/10 03:45:40;;;;;;;0.80;0.80;;;;;;;6.21;100.00;95812.25;4993100;28;20022;-93
2024/02/10 03:48:08;;;;;;;0.73;0.73;;;;;;;6.00;100.00;95813.16;4988130;28;20018;-93
2024/02/10 03:50:36;;;;;;;0.80;0.80;;;;;;;5.90;100.00;95803.41;5005581;28;20060;-93
2024/02/10 03:53:04;;;;;;;0.80;0.80;;;;;;;5.77;100.00;95805.16;5020417;28;20107;-95
2024/02/10 03:55:30;;;;;;;0.70;0.70;;;;;;;5.66;100.00;95806.94;5001502;28;20026;-92
2024/02/10 03:57:59;;;;;;;0.70;0.70;;;;;;;5.62;100.00;95802.53;4983298;28;20045;-92
2024/02/10 04:00:28;;;;;;;0.80;0.80;;;;;;;5.87;100.00;95793.72;5008861;28;20116;-93
2024/02/10 04:02:55;;;;;;;0.70;0.70;;;;;;;5.68;100.00;95797.22;4994932;28;20026;-92
2024/02/10 04:05:22;;;;;;;0.80;0.80;;;;;;;5.67;100.00;95795.47;4997823;28;20065;-92
2024/02/10 04:07:52;;;;;;;0.80;0.80;;;;;;;5.53;100.00;95789.28;4996321;28;20043;-95
2024/02/10 04:10:21;;;;;;;0.80;0.80;;;;;;;5.45;100.00;95788.38;4991778;28;20284;-96
2024/02/10 04:12:47;;;;;;;0.80;0.80;;;;;;;5.33;100.00;95791.91;4995551;28;20039;-95
2024/02/10 04:15:13;;;;;;;0.80;0.80;;;;;;;5.12;100.00;95790.94;4995300;28;20034;-93
2024/02/10 04:17:48;;;;;;;0.70;0.70;;;;;;;5.05;100.00;95797.09;5001859;28;20045;-94
2024/02/10 04:20:15;;;;;;;0.80;0.80;;;;;;;5.02;100.00;95801.50;5000994;28;20038;-93
2024/02/10 04:22:45;;;;;;;0.80;0.80;;;;;;;5.21;100.00;95789.22;5002598;28;20030;-94
2024/02/10 04:25:14;;;;;;;0.80;0.80;;;;;;;5.29;100.00;95798.94;5008038;28;20062;-93
2024/02/10 04:27:40;;;;;;;0.80;0.80;;;;;;;5.40;100.00;95798.94;4992605;28;20027;-93
2024/02/10 04:30:10;;;;;;;0.80;0.80;;;;;;;5.47;100.00;95794.56;5008850;28;20018;-92
2024/02/10 04:32:42;;;;;;;0.80;0.80;;;;;;;5.49;100.00;95800.72;5005226;28;20039;-93
2024/02/10 04:35:11;;;;;;;0.80;0.80;;;;;;;5.75;100.00;95793.72;5013796;28;20010;-93
2024/02/10 04:37:38;;;;;;;0.80;0.80;;;;;;;5.67;100.00;95798.13;5021182;28;20058;-93
2024/02/10 04:40:04;;;;;;;0.80;0.80;;;;;;;5.67;100.00;95800.75;5014916;28;20011;-93
2024/02/10 04:42:31;;;;;;;0.80;0.80;;;;;;;5.79;100.00;95791.94;5033456;28;20078;-92
2024/02/10 04:45:01;;;;;;;0.80;0.80;;;;;;;5.71;100.00;95799.88;5012294;28;20054;-95
2024/02/10 04:47:27;;;;;;;0.80;0.80;;;;;;;5.70;100.00;95795.47;4976505;28;20039;-93
2024/02/10 04:49:55;;;;;;;0.80;0.80;;;;;;;5.57;100.00;95809.56;5024024;28;20050;-93
2024/02/10 04:52:23;;;;;;;0.75;0.75;;;;;;;5.78;100.00;95804.28;4992244;28;20045;-93
2024/02/10 04:54:53;;;;;;;0.80;0.80;;;;;;;6.02;100.00;95798.13;4991034;28;20031;-93
2024/02/10 04:57:28;;;;;;;0.80;0.80;;;;;;;6.03;100.00;95809.59;4998492;28;20070;-94
2024/02/10 07:29:45;;;;;;;0.90;0.90;;;;;;;5.04;100.00;95832.34;5893052;23;20055;-96
2024/02/10 07:32:13;;;;;;;0.90;0.90;;;;;;;5.10;100.00;95813.84;4992314;28;20043;-93
2024/02/10 07:34:40;;;;;;;0.80;0.80;;;;;;;5.03;100.00;95825.28;4994241;28;20035;-96
2024/02/10 07:37:07;;;;;;;0.80;0.80;;;;;;;5.08;100.00;95833.25;4960260;28;20153;-95
2024/02/10 07:39:40;;;;;;;0.80;0.80;;;;;;;5.15;100.00;95827.09;4991798;28;20071;-92
2024/02/10 07:42:06;;;;;;;0.80;0.80;;;;;;;5.22;100.00;95817.41;4965277;28;20034;-95
2024/02/10 07:44:36;;;;;;;0.80;0.80;;;;;;;5.46;100.00;95827.16;4984207;28;20404;-92
2024/02/10 07:47:03;;;;;;;0.80;0.80;;;;;;;5.47;100.00;95828.94;4966054;28;20103;-92
2024/02/10 07:49:33;;;;;;;0.80;0.80;;;;;;;5.56;100.00;95827.19;4971299;28;20053;-93
2024/02/10 07:51:58;;;;;;;0.80;0.80;;;;;;;5.68;100.00;95820.16;4999480;28;20063;-94
2024/02/10 07:54:27;;;;;;;0.70;0.70;;;;;;;5.64;100.00;95817.50;4991444;28;20653;-93
2024/02/10 07:56:56;;;;;;;0.80;0.80;;;;;;;5.74;100.00;95817.50;4969424;28;20031;-93
2024/02/10 07:59:34;;;;;;;0.80;0.80;;;;;;;5.77;100.00;95806.94;4975799;28;20040;-93
2024/02/10 08:02:04;;;;;;;0.80;0.80;;;;;;;5.76;100.00;95806.06;4987489;28;20057;-92
2024/02/10 08:04:31;;;;;;;0.80;0.80;;;;;;;5.83;100.00;95807.81;4981941;28;20046;-94
2024/02/10 08:06:59;;;;;;;0.70;0.70;;;;;;;5.85;99.82;95799.91;4976828;28;20050;-96
2024/02/10 08:09:28;;;;;;;0.70;0.70;;;;;;;5.81;100.00;95806.06;4983849;28;20026;-93
2024/02/10 10:34:11;;;;;;;0.60;0.60;;;;;;;9.18;95.04;95762.41;5816215;23;20043;-90
2024/02/10 10:36:51;;;;;;;0.60;0.60;;;;;;;9.25;93.90;95753.47;4986050;28;20023;-95
2024/02/10 10:39:24;;;;;;;0.60;0.60;;;;;;;9.18;93.50;95759.75;4984606;28;20070;-96
2024/02/10 10:41:53;;;;;;;0.60;0.60;;;;;;;9.18;93.09;95749.97;4984936;28;20035;-94
2024/02/10 10:44:30;;;;;;;0.60;0.60;;;;;;;9.06;93.56;95750.16;4980782;28;20026;-94
2024/02/10 10:47:00;;;;;;;0.60;0.60;;;;;;;9.20;93.99;95737.56;4980350;28;20054;-95
2024/02/10 10:49:37;;;;;;;0.60;0.60;;;;;;;9.08;93.44;95732.38;4972488;28;20437;-95
2024/02/10 10:52:15;;;;;;;0.63;0.63;;;;;;;9.26;93.98;95731.25;4962857;28;20027;-93
2024/02/10 10:54:54;;;;;;;0.60;0.60;;;;;;;9.28;93.95;95715.28;4965743;28;20066;-96
2024/02/10 10:57:29;;;;;;;0.60;0.60;;;;;;;9.35;93.64;95704.53;4978849;28;20030;-96
2024/02/10 11:00:25;;;;;;;0.60;0.60;;;;;;;8.98;93.37;95713.03;4978147;28;20039;-96
2024/02/10 11:02:53;;;;;;;0.60;0.60;;;;;;;9.07;94.88;95704.03;4980906;28;20042;-94
2024/02/10 11:05:51;;;;;;;0.68;0.68;;;;;;;9.27;94.20;95695.78;4972938;28;20035;-94
2024/02/10 11:08:34;;;;;;;0.60;0.60;;;;;;;9.00;93.66;95681.94;4960324;28;20078;-96
2024/02/10 11:11:10;;;;;;;0.63;0.63;;;;;;;9.02;93.37;95678.41;4970595;28;20041;-95
2024/02/10 11:19:33;;;;;;;0.60;0.60;;;;;;;9.71;92.45;95648.94;5271453;23;20061;-93
2024/02/10 14:20:12;;;;;;;0.50;0.50;;;;;;;13.12;71.09;95428.56;5400544;23;20066;-95
2024/02/10 15:03:14;;;;;;;0.50;0.50;;;;;;;11.60;77.68;95419.00;5759754;23;20459;-94
2024/02/10 15:05:41;;;;;;;0.50;0.50;;;;;;;11.47;76.99;95416.66;4960383;28;20036;-95
2024/02/10 15:08:13;;;;;;;0.50;0.50;;;;;;;11.42;77.24;95413.25;4965840;28;20042;-93
2024/02/10 15:10:40;;;;;;;0.50;0.50;;;;;;;11.36;77.59;95408.09;4977576;28;20042;-94
2024/02/10 15:13:07;;;;;;;0.50;0.50;;;;;;;11.23;78.82;95418.19;4947899;29;20063;-94
2024/02/10 15:15:33;;;;;;;0.50;0.50;;;;;;;11.23;78.23;95404.00;4965389;28;20031;-94
2024/02/10 15:18:04;;;;;;;0.50;0.50;;;;;;;11.19;78.43;95413.00;4969978;28;20107;-92
2024/02/10 15:20:31;;;;;;;0.45;0.45;;;;;;;10.98;79.69;95407.31;4968719;28;20051;-93
2024/02/10 15:23:00;;;;;;;0.50;0.50;;;;;;;11.25;78.21;95402.13;4987013;28;20083;-92
2024/02/10 15:25:32;;;;;;;0.50;0.50;;;;;;;11.07;79.72;95397.28;4985231;28;20027;-92
2024/02/10 15:28:00;;;;;;;0.50;0.50;;;;;;;11.03;78.26;95393.84;4951335;28;20035;-92
2024/02/10 15:30:34;;;;;;;0.50;0.50;;;;;;;11.11;77.91;95401.63;4934347;28;20058;-94
2024/02/10 15:33:02;;;;;;;0.50;0.50;;;;;;;11.05;78.46;95392.00;4932166;28;20031;-92
2024/02/10 15:35:28;;;;;;;0.52;0.52;;;;;;;11.30;76.85;95387.75;4980926;28;20046;-94
2024/02/10 15:37:54;;;;;;;0.50;0.50;;;;;;;11.34;76.19;95385.88;4946919;29;20365;-92
2024/02/10 15:40:20;;;;;;;0.60;0.60;;;;;;;11.28;76.79;95389.59;4935090;29;20047;-92
2024/02/10 15:42:50;;;;;;;0.50;0.50;;;;;;;11.17;76.74;95383.69;4941909;29;20075;-94
2024/02/10 15:45:26;;;;;;;0.50;0.50;;;;;;;11.39;75.24;95380.41;4963571;28;20026;-94
2024/02/10 15:47:55;;;;;;;0.50;0.50;;;;;;;11.27;76.49;95382.50;4954766;28;20050;-92
2024/02/10 15:50:21;;;;;;;0.60;0.60;;;;;;;11.26;75.45;95385.25;4987195;28;20530;-95
2024/02/10 15:52:47;;;;;;;0.50;0.50;;;;;;;11.21;75.92;95379.13;4963705;28;20069;-95
2024/02/10 15:55:17;;;;;;;0.50;0.50;;;;;;;11.19;75.70;95376.50;4951435;29;20143;-95
2024/02/10 15:57:44;;;;;;;0.50;0.50;;;;;;;11.04;75.21;95379.59;4974184;28;20051;-95
2024/02/10 16:00:13;;;;;;;0.52;0.52;;;;;;;10.95;76.94;95372.69;4969339;28;20050;-92
2024/02/10 16:02:39;;;;;;;0.50;0.50;;;;;;;10.81;76.34;95373.97;4973172;28;20023;-91
2024/02/10 16:05:08;;;;;;;0.50;0.50;;;;;;;10.66;77.83;95380.56;5000856;28;20024;-91
2024/02/10 16:07:37;;;;;;;0.60;0.60;;;;;;;10.61;77.01;95372.69;4967220;28;20043;-91
2024/02/10 16:10:04;;;;;;;0.60;0.60;;;;;;;10.53;77.77;95385.31;4987615;28;20786;-95
2024/02/10 16:12:33;;;;;;;0.57;0.57;;;;;;;10.39;78.35;95377.66;4964642;28;20047;-94
2024/02/10 16:14:59;;;;;;;0.60;0.60;;;;;;;10.19;78.95;95375.44;4961108;28;20031;-94
2024/02/10 16:17:25;;;;;;;0.50;0.50;;;;;;;10.15;79.35;95376.41;4945714;28;20038;-94
2024/02/10 16:19:53;;;;;;;0.60;0.60;;;;;;;10.09;79.47;95379.22;4961685;28;20031;-94
2024/02/10 16:22:26;;;;;;;0.60;0.60;;;;;;;10.10;79.60;95380.09;4971127;28;20138;-95
2024/02/10 16:24:52;;;;;;;0.60;0.60;;;;;;;10.05;80.30;95380.22;4944643;28;20106;-96
2024/02/10 16:30:19;;;;;;;0.60;0.60;;;;;;;9.80;81.80;95387.88;4948479;29;20067;-94
2024/02/10 16:32:48;;;;;;;0.70;0.70;;;;;;;9.76;81.92;95397.69;4955222;29;20023;-93
2024/02/10 16:35:23;;;;;;;0.60;0.60;;;;;;;9.73;82.20;95387.16;4965779;28;20040;-93
2024/02/10 16:37:56;;;;;;;0.63;0.63;;;;;;;9.62;82.55;95389.13;4941850;29;20039;-92
2024/02/10 16:43:05;;;;;;;0.60;0.60;;;;;;;9.39;84.05;95391.38;5141641;23;20374;-94
2024/02/10 16:45:34;;;;;;;0.55;0.55;;;;;;;9.44;84.14;95393.06;4983955;28;20061;-93
2024/02/10 17:25:49;;;;;;;0.60;0.60;;;;;;;8.18;91.34;95428.88;5356991;23;20046;-96
2024/02/10 17:28:18;;;;;;;0.70;0.70;;;;;;;8.36;90.60;95434.84;4967834;28;20251;-95
2024/02/10 17:30:51;;;;;;;0.60;0.60;;;;;;;7.90;91.78;95433.72;5003807;28;20042;-95
2024/02/10 17:33:19;;;;;;;0.70;0.70;;;;;;;8.08;92.57;95442.34;4974798;28;20034;-95
2024/02/10 17:35:55;;;;;;;;;;;;;;;7.91;92.50;95445.22;4989584;28;21013;-94
2024/02/10 17:38:28;;;;;;;0.70;0.70;;;;;;;8.23;92.04;95458.91;4984723;28;19925;-95
2024/02/10 17:40:59;;;;;;;0.60;0.60;;;;;;;8.27;90.97;95457.09;4984541;28;20709;-95
2024/02/10 18:26:09;;;;;;;0.70;0.70;;;;;;;8.11;90.44;95472.38;5815251;23;20050;-94
2024/02/10 18:28:36;;;;;;;0.80;0.80;;;;;;;8.13;90.71;95467.91;5009927;28;20022;-94
2024/02/10 18:33:37;;;;;;;0.70;0.70;;;;;;;7.96;91.26;95478.78;5149349;23;20100;-95
2024/02/10 18:36:06;;;;;;;0.70;0.70;;;;;;;7.85;92.02;95474.47;4973887;28;20050;-95
2024/02/10 18:38:33;;;;;;;0.65;0.65;;;;;;;7.80;92.34;95474.53;4955011;28;20027;-94
2024/02/10 18:41:00;;;;;;;;;;;;;;;7.66;93.23;95474.72;4988094;28;20057;-96
2024/02/10 18:43:27;;;;;;;0.70;0.70;;;;;;;7.52;93.78;95481.97;4973838;28;19923;-95
2024/02/10 18:45:56;;;;;;;0.70;0.70;;;;;;;7.35;94.28;95484.81;4968397;28;20035;-95
2024/02/10 18:48:23;;;;;;;0.60;0.60;;;;;;;7.31;94.71;95484.84;4973779;28;20039;-95
2024/02/10 18:50:49;;;;;;;0.60;0.60;;;;;;;7.26;95.40;95486.69;4978131;28;20042;-95
2024/02/10 18:53:14;;;;;;;0.60;0.60;;;;;;;7.23;95.82;95481.38;4945400;28;20027;-94
2024/02/10 18:55:42;;;;;;;0.60;0.60;;;;;;;7.14;95.85;95491.22;4959024;28;20129;-95
2024/02/10 18:58:12;;;;;;;0.60;0.60;;;;;;;7.17;95.95;95492.94;4957784;28;20663;-95
2024/02/10 19:00:41;;;;;;;0.60;0.60;;;;;;;7.23;95.58;95498.19;4990048;28;20094;-96
2024/02/10 19:03:08;;;;;;;0.77;0.77;;;;;;;7.03;95.80;95501.03;4980456;28;20109;-96
2024/02/10 19:05:35;;;;;;;0.70;0.70;;;;;;;6.86;96.58;95514.44;4947261;28;20043;-96
2024/02/10 19:08:02;;;;;;;0.70;0.70;;;;;;;6.83;96.40;95514.44;4973187;28;20035;-95
2024/02/10 19:10:28;;;;;;;0.70;0.70;;;;;;;6.85;97.04;95519.72;4959937;28;20026;-94
2024/02/10 19:12:54;;;;;;;0.70;0.70;;;;;;;6.90;97.31;95526.78;4950513;28;20058;-95
2024/02/10 19:15:21;;;;;;;0.70;0.70;;;;;;;6.80;97.36;95525.06;4985978;28;20039;-96
2024/02/10 19:17:49;;;;;;;0.70;0.70;;;;;;;6.69;97.96;95522.50;4968679;28;20038;-94
2024/02/10 19:20:17;;;;;;;0.70;0.70;;;;;;;6.54;98.32;95535.00;4981767;28;20027;-95
2024/02/10 19:22:42;;;;;;;0.70;0.70;;;;;;;6.62;99.25;95527.88;4971313;28;20043;-95
2024/02/10 19:25:15;;;;;;;;;;;;;;;6.36;98.66;95533.31;4972395;28;20050;-96
2024/02/10 19:27:45;;;;;;;0.73;0.73;;;;;;;6.29;98.68;95542.22;4969711;28;19918;-94
2024/02/10 19:30:11;;;;;;;0.70;0.70;;;;;;;6.15;98.63;95544.94;4970237;28;20073;-95
2024/02/10 19:32:39;;;;;;;0.70;0.70;;;;;;;6.06;99.03;95550.25;4968065;28;20126;-96
2024/02/10 19:35:11;;;;;;;0.70;0.70;;;;;;;6.03;100.00;95537.03;4971575;28;20024;-96
2024/02/10 19:37:45;;;;;;;0.70;0.70;;;;;;;6.16;100.00;95536.09;4971678;28;20031;-94
2024/02/10 19:40:12;;;;;;;0.77;0.77;;;;;;;5.97;100.00;95535.31;4954228;28;20039;-96
2024/02/10 19:42:39;;;;;;;0.70;0.70;;;;;;;5.83;100.00;95537.97;4960817;28;20070;-96
2024/02/10 19:45:06;;;;;;;0.70;0.70;;;;;;;5.65;100.00;95540.66;4957495;28;20034;-96
2024/02/10 19:47:38;;;;;;;0.70;0.70;;;;;;;5.60;100.00;95545.09;4967157;28;20580;-96
2024/02/10 19:50:05;;;;;;;0.70;0.70;;;;;;;5.54;100.00;95553.94;4968571;28;20042;-94
2024/02/10 19:52:34;;;;;;;0.70;0.70;;;;;;;5.74;100.00;95556.50;4954269;28;20042;-95
2024/02/10 19:55:09;;;;;;;0.70;0.70;;;;;;;5.62;100.00;95559.22;4966360;28;20054;-95
2024/02/10 19:57:35;;;;;;;0.70;0.70;;;;;;;5.63;100.00;95556.56;4970066;28;20062;-93
2024/02/10 20:00:06;;;;;;;0.80;0.80;;;;;;;5.65;100.00;95553.91;4956263;29;20031;-95
2024/02/10 20:02:53;;;;;;;0.75;0.75;;;;;;;5.73;100.00;95548.59;4951290;28;20075;-94
2024/02/10 20:05:21;;;;;;;0.80;0.80;;;;;;;5.78;100.00;95555.63;4941728;29;20070;-94
2024/02/10 20:07:47;;;;;;;0.70;0.70;;;;;;;5.66;100.00;95551.28;4938408;28;20074;-94
2024/02/10 20:10:17;;;;;;;0.70;0.70;;;;;;;5.66;100.00;95556.56;4935174;29;20024;-95
2024/02/10 20:12:44;;;;;;;0.70;0.70;;;;;;;5.70;100.00;95561.81;4936990;29;20043;-95
2024/02/10 20:15:22;;;;;;;0.75;0.75;;;;;;;5.74;100.00;95567.09;4952264;28;20043;-95
2024/02/10 20:17:51;;;;;;;0.70;0.70;;;;;;;5.81;100.00;95570.63;4951451;29;20024;-95
2024/02/10 20:20:19;;;;;;;0.70;0.70;;;;;;;5.88;100.00;95570.56;4987162;28;20027;-95
2024/02/10 20:22:44;;;;;;;0.70;0.70;;;;;;;5.93;100.00;95564.41;4951839;28;20059;-96
2024/02/10 20:25:12;;;;;;;0.80;0.80;;;;;;;6.00;100.00;95564.41;4958533;28;20085;-95
2024/02/10 20:27:40;;;;;;;0.70;0.70;;;;;;;6.01;100.00;95567.94;4971177;28;20039;-94
2024/02/10 20:30:09;;;;;;;0.70;0.70;;;;;;;5.94;100.00;95568.81;4957325;29;20038;-96
2024/02/10 20:32:39;;;;;;;0.70;0.70;;;;;;;6.01;100.00;95567.94;4958497;28;20035;-95
2024/02/10 20:35:09;;;;;;;0.70;0.70;;;;;;;6.03;100.00;95567.03;4980643;28;20556;-94
2024/02/10 20:37:41;;;;;;;0.70;0.70;;;;;;;6.06;100.00;95571.44;4964935;28;20118;-95
2024/02/10 20:40:11;;;;;;;0.70;0.70;;;;;;;6.15;100.00;95571.41;4962607;28;20130;-95
2024/02/10 20:42:39;;;;;;;0.70;0.70;;;;;;;6.14;100.00;95580.22;4961160;28;20392;-94
2024/02/10 20:45:07;;;;;;;0.70;0.70;;;;;;;6.19;100.00;95582.84;4955293;28;20035;-94
2024/02/10 20:47:39;;;;;;;0.80;0.80;;;;;;;6.24;100.00;95581.06;4966456;28;20066;-93
2024/02/10 20:50:10;;;;;;;0.75;0.75;;;;;;;6.24;100.00;95579.28;4976341;28;20031;-95
2024/02/10 20:52:37;;;;;;;0.70;0.70;;;;;;;6.25;100.00;95585.47;4996586;28;20409;-94
2024/02/10 20:55:03;;;;;;;0.80;0.80;;;;;;;6.22;100.00;95591.63;4957197;28;20043;-93
2024/02/10 20:57:29;;;;;;;0.63;0.63;;;;;;;6.25;100.00;95583.69;4960727;28;20042;-94
2024/02/10 20:59:57;;;;;;;0.77;0.77;;;;;;;6.29;100.00;95588.09;4970663;28;20071;-93
2024/02/10 21:02:24;;;;;;;0.70;0.70;;;;;;;6.33;100.00;95592.50;4978552;28;20046;-93
2024/02/10 21:04:49;;;;;;;0.80;0.80;;;;;;;6.29;100.00;95597.81;4978273;28;20031;-94
2024/02/10 21:07:18;;;;;;;0.70;0.70;;;;;;;6.19;100.00;95589.03;4962492;28;20393;-94
2024/02/10 21:09:46;;;;;;;0.70;0.70;;;;;;;6.22;100.00;95596.94;4965238;28;20038;-94
2024/02/10 21:12:13;;;;;;;0.70;0.70;;;;;;;6.14;100.00;95607.56;4977008;28;20039;-94
2024/02/10 21:14:42;;;;;;;0.73;0.73;;;;;;;6.06;100.00;95601.41;4959420;28;20038;-94
2024/02/10 21:17:12;;;;;;;0.70;0.70;;;;;;;6.14;100.00;95604.06;4974462;28;20050;-94
2024/02/10 21:19:37;;;;;;;0.70;0.70;;;;;;;6.14;100.00;95601.41;4942737;28;20038;-95
2024/02/10 21:22:06;;;;;;;0.70;0.70;;;;;;;6.25;100.00;95612.81;4960319;28;20075;-95
2024/02/10 21:24:59;;;;;;;0.65;0.65;;;;;;;6.22;100.00;95606.66;4982565;28;20485;-95
2024/02/10 21:27:26;;;;;;;0.70;0.70;;;;;;;6.33;100.00;95612.78;4967479;28;20123;-96
2024/02/10 21:29:52;;;;;;;0.70;0.70;;;;;;;6.24;100.00;95612.84;4956865;28;20062;-94
2024/02/10 21:32:17;;;;;;;0.70;0.70;;;;;;;6.27;100.00;95612.78;4950625;28;20042;-95
2024/02/10 21:34:43;;;;;;;0.80;0.80;;;;;;;6.41;100.00;95619.78;4965980;28;20540;-95
2024/02/10 21:37:10;;;;;;;0.65;0.65;;;;;;;6.42;100.00;95610.97;4971040;28;20041;-95
2024/02/10 21:39:37;;;;;;;0.70;0.70;;;;;;;6.38;100.00;95616.28;4969086;28;20042;-94
2024/02/10 21:42:04;;;;;;;0.80;0.80;;;;;;;6.47;100.00;95628.59;4972686;28;20050;-96
2024/02/10 21:44:32;;;;;;;0.70;0.70;;;;;;;6.41;100.00;95626.84;4974453;28;20078;-95
2024/02/10 21:47:03;;;;;;;0.65;0.65;;;;;;;6.41;100.00;95625.06;4976658;28;20179;-96
2024/02/10 21:49:30;;;;;;;0.70;0.70;;;;;;;6.32;100.00;95627.78;4971213;28;20090;-93
2024/02/10 21:52:01;;;;;;;0.73;0.73;;;;;;;6.35;100.00;95635.72;4959240;28;20102;-94
2024/02/10 22:32:28;;;;;;;0.73;0.73;;;;;;;6.61;100.00;95638.25;5804287;23;20646;-93
2024/02/10 22:34:59;;;;;;;0.80;0.80;;;;;;;6.60;100.00;95638.22;4989569;28;20023;-93
2024/02/10 22:37:31;;;;;;;0.70;0.70;;;;;;;6.78;100.00;95639.91;4972374;28;20054;-94
2024/02/10 22:39:59;;;;;;;0.80;0.80;;;;;;;6.72;100.00;95638.19;4988101;28;20042;-92